Terminal Aerodrome Forecast
Issued by NWS Wilmington, NC

Home | Current Version | Previous Version | Text Only | Print | Product List | Glossary On
Versions: 1 2 3 4 5 6 7 8 9 10 11 12 13 14 15 16 17 18 19 20 21 22 23 24
623
FTUS42 KILM 170521
TAFLBT
TAF
KLBT 170521Z 1706/1806 VRB03KT P6SM SCT070
      TEMPO 1710/1714 3SM BR BKN040 BKN045
     FM171500 16005KT P6SM VCTS BKN035CB
     FM180000 19005KT P6SM BKN050
     FM180500 20007KT P6SM SCT070=

USA.gov is the U.S. government's official web portal to all federal, state and local government web resources and services.